Airfield :
LOGIN :

Register | Disclaimer

   EN    FR    IT 

 










Legend :    VFR   Marginal VFR   IFR   Intensive IFR   Very Intensive IFR
Visi :
Ceiling :
>= 8 km
>= 3000ft
5 to 8 km
1000 to 3000 ft
1500m to 5 km
500 to 1000 ft
800 to 1500m
200 to 500 ft
< 800m
< 200 ft
Symbols :   Thunderstorms  Fog  Heavy snow  Heavy precipitations  Wind > 20 kt
SIGMETs :     Misc.  Thunderstorms  Icing  Turbulence  Mountain Waves  Volcanic Ashes







- Airport Elevation : 124 ft
- IATA code : AVN
- Download approach charts


LFMV - Avignon Caumont

CURRENT METAR :
  • 180500Z AUTO 35004KT 330V030 CAVOK 22/13 Q1015 NOSIG

EXPIRED METARs :
  • 180430Z AUTO 35007KT CAVOK 22/13 Q1015 NOSIG
  • 180400Z AUTO 35010KT CAVOK 22/13 Q1014 NOSIG
  • 180330Z AUTO 34009KT CAVOK 22/13 Q1014 NOSIG
  • 180300Z AUTO 35011KT CAVOK 23/13 Q1014 NOSIG
  • 180230Z AUTO 35010KT CAVOK 23/13 Q1014 NOSIG
  • 180200Z AUTO 34009KT CAVOK 23/13 Q1014

TAF TAF LFMV
Valid from the 18 at 03:00 until the 19 at 03:00 UTC


180200Z 1803/1903 34013KT CAVOK
BECMG 1813/1815 VRB05KT
BECMG 1817/1818 23012KT
BECMG 1820/1822 VRB04KT
ATIS : +33 4 90 84 32 84
No reported NOTAMs for that airfield.



MET'MAP, your aeronautical weather chart ! - Copyright ORBIFLY December 2007 - Disclaimer

ORBIFLY MET'MAP TEAM :

Programming & Development : Alexandra Zaïnal
Concept & Development : Baudouin d'Aumeries
Co-Development & Prog : Marc-Olivier Méhu
Technical & hardware support : Manuel Goepfert

Contact : metmap@orbifly.com




SOURCES & CREDITS :

   NOAA